Time;durP1;ratioP1;P1;durP2;ratioP2;P2;SDS_P1;SDS_P2;PMS_P1;PMS_P2;Temp;Humidity;BMP_temperature;BMP_pressure;BME280_temperature;BME280_humidity;BME280_pressure;Samples;Min_cycle;Max_cycle;Signal;HPM_P1;HPM_P2
2022/06/03 00:00:24;;;;;;;10.98;7.15;;;;;;;11.10;78.05;102015.06;5030337;28;20040;-70
2022/06/03 00:02:53;;;;;;;10.88;7.47;;;;;;;11.03;78.06;102012.72;5030383;28;20049;-71
2022/06/03 00:05:34;;;;;;;9.98;7.22;;;;;;;11.06;77.66;102016.13;5031731;28;20437;-70
2022/06/03 00:08:21;;;;;;;11.00;7.85;;;;;;;11.03;77.99;102004.72;5029992;28;20053;-71
2022/06/03 00:11:06;;;;;;;10.38;7.25;;;;;;;11.01;78.35;102009.28;5018560;28;20106;-70
2022/06/03 00:13:51;;;;;;;11.95;7.78;;;;;;;10.91;78.75;102006.16;5032266;28;20935;-70
2022/06/03 00:16:39;;;;;;;11.68;7.88;;;;;;;10.89;78.49;102006.25;5034687;28;20040;-69
2022/06/03 00:19:34;;;;;;;13.18;7.95;;;;;;;10.98;79.26;102002.25;5032604;28;20045;-70
2022/06/03 00:22:09;;;;;;;11.15;8.50;;;;;;;11.00;79.38;101999.53;5033433;28;20053;-71
2022/06/03 00:25:14;;;;;;;10.27;8.30;;;;;;;10.89;79.61;102005.34;5034390;28;20161;-72
2022/06/03 00:27:47;;;;;;;9.23;7.63;;;;;;;10.89;79.60;102006.25;5035192;28;20948;-71
2022/06/03 00:30:50;;;;;;;11.25;8.27;;;;;;;10.90;80.03;101999.09;5034672;28;20139;-70
2022/06/03 00:33:51;;;;;;;13.18;8.13;;;;;;;10.94;80.06;102005.13;5029553;28;20060;-69
2022/06/03 00:36:41;;;;;;;10.02;8.25;;;;;;;10.88;80.35;102003.63;5035480;28;20210;-70
2022/06/03 00:39:18;;;;;;;10.10;7.45;;;;;;;10.87;80.39;102000.09;5024336;28;20041;-70
2022/06/03 00:42:07;;;;;;;12.38;7.88;;;;;;;10.81;80.89;102005.72;5046974;28;20044;-70
2022/06/03 00:44:55;;;;;;;11.20;8.18;;;;;;;10.72;81.17;102006.13;5035046;28;20041;-70
2022/06/03 00:47:29;;;;;;;13.45;8.20;;;;;;;10.88;80.95;102004.47;5034979;28;20063;-69
2022/06/03 00:50:22;;;;;;;9.77;8.00;;;;;;;10.80;81.28;102000.47;5035190;28;20053;-70
2022/06/03 00:53:25;;;;;;;10.95;8.60;;;;;;;10.71;81.54;102001.72;5033782;28;20045;-70
2022/06/03 00:55:51;;;;;;;;;;;;;;;10.82;81.22;102006.56;5033413;28;20056;-69
2022/06/03 00:58:46;;;;;;;10.13;7.90;;;;;;;10.60;82.14;102001.34;5033768;28;19967;-69
2022/06/03 01:01:24;;;;;;;9.00;8.07;;;;;;;10.63;81.86;102002.06;5029940;28;20041;-70
2022/06/03 01:04:11;;;;;;;9.70;7.63;;;;;;;10.69;81.80;101998.25;5034314;28;20057;-69
2022/06/03 01:06:59;;;;;;;10.77;8.43;;;;;;;10.70;81.45;101991.13;5034209;28;20045;-69
2022/06/03 01:10:02;;;;;;;8.60;7.53;;;;;;;10.47;82.50;101989.50;5034096;28;20754;-69
2022/06/03 01:13:05;;;;;;;12.05;8.25;;;;;;;10.50;82.40;101989.38;5023291;28;20143;-69
2022/06/03 01:15:47;;;;;;;11.85;8.73;;;;;;;10.42;82.52;101987.03;5034837;28;20037;-70
2022/06/03 01:18:24;;;;;;;10.20;8.33;;;;;;;10.30;83.20;101990.25;5034017;28;20072;-69
2022/06/03 01:21:23;;;;;;;13.00;9.77;;;;;;;10.26;84.57;101985.97;5024270;28;20684;-69
2022/06/03 01:23:58;;;;;;;14.98;8.98;;;;;;;10.61;82.81;101987.94;5033264;28;20110;-69
2022/06/03 01:26:23;;;;;;;10.90;8.15;;;;;;;10.53;82.84;101986.53;5032229;28;20033;-69
2022/06/03 01:29:04;;;;;;;14.38;8.52;;;;;;;10.56;83.36;101989.09;5033934;28;20176;-70
2022/06/03 01:31:37;;;;;;;12.02;8.38;;;;;;;10.64;82.75;101984.25;5034885;28;20766;-70
2022/06/03 01:34:25;;;;;;;10.45;8.27;;;;;;;10.55;83.25;101987.38;5032969;28;20041;-69
2022/06/03 01:37:09;;;;;;;9.50;8.02;;;;;;;10.49;82.72;101980.50;5033659;28;20154;-69
2022/06/03 01:39:53;;;;;;;14.13;8.20;;;;;;;10.51;83.75;101988.44;5033994;28;20071;-70
2022/06/03 01:42:43;;;;;;;11.60;9.00;;;;;;;10.46;84.10;101985.09;5031160;28;20075;-70
2022/06/03 01:45:27;;;;;;;12.30;8.07;;;;;;;10.57;83.68;101982.81;5032882;28;20699;-71
2022/06/03 01:48:33;;;;;;;12.35;8.05;;;;;;;10.54;83.29;101978.50;5032972;28;20045;-70
2022/06/03 01:51:28;;;;;;;11.00;8.20;;;;;;;10.41;84.02;101979.97;5033692;28;20826;-70
2022/06/03 01:54:38;;;;;;;12.25;8.85;;;;;;;10.36;84.89;101980.16;5017891;28;20050;-71
2022/06/03 01:57:22;;;;;;;14.20;9.02;;;;;;;10.49;84.13;101971.59;5032222;28;20877;-70
2022/06/03 01:59:50;;;;;;;10.95;8.18;;;;;;;10.32;84.92;101970.56;5025350;28;20040;-69
2022/06/03 02:02:42;;;;;;;11.57;8.80;;;;;;;10.34;85.45;101968.72;5032623;28;20779;-70
2022/06/03 02:05:08;;;;;;;;;;;;;;;10.30;85.07;101961.78;5016196;28;20494;-69
2022/06/03 02:07:45;;;;;;;13.55;7.80;;;;;;;10.34;85.33;101957.16;5044184;28;19921;-71
2022/06/03 02:10:42;;;;;;;13.15;8.85;;;;;;;10.36;85.55;101949.97;5032895;28;20131;-71
2022/06/03 02:13:31;;;;;;;11.52;8.48;;;;;;;10.42;85.43;101941.69;5032971;28;20047;-71
2022/06/03 02:16:06;;;;;;;12.02;8.63;;;;;;;10.44;85.67;101939.84;5042277;28;20076;-71
2022/06/03 02:19:09;;;;;;;14.13;8.13;;;;;;;10.54;85.20;101940.25;5030485;28;20033;-70
2022/06/03 02:21:53;;;;;;;10.70;8.43;;;;;;;10.54;85.10;101941.16;5026566;28;20091;-69
2022/06/03 02:24:24;;;;;;;12.23;8.25;;;;;;;10.62;85.19;101940.78;5030519;28;20569;-69
2022/06/03 02:27:09;;;;;;;12.85;7.47;;;;;;;10.68;85.14;101935.16;5029062;28;20064;-69
2022/06/03 02:32:59;;;;;;;11.07;7.93;;;;;;;10.70;85.16;101935.13;5031530;28;20107;-70
2022/06/03 02:35:46;;;;;;;9.35;8.23;;;;;;;10.77;84.25;101932.06;5021818;28;20037;-70
2022/06/03 02:38:30;;;;;;;12.43;8.57;;;;;;;10.69;84.87;101923.56;5027873;28;20053;-70
2022/06/03 02:41:04;;;;;;;12.02;8.50;;;;;;;10.67;84.98;101925.44;5027945;28;20044;-70
2022/06/03 02:44:08;;;;;;;10.80;8.93;;;;;;;10.71;85.12;101928.84;5034633;28;20037;-69
2022/06/03 02:47:01;;;;;;;15.63;8.13;;;;;;;10.82;84.18;101915.84;5033611;28;20045;-69
2022/06/03 02:49:49;;;;;;;11.90;7.85;;;;;;;10.73;84.41;101930.47;5032229;28;20037;-69
2022/06/03 02:52:57;;;;;;;11.52;8.55;;;;;;;10.85;83.94;101929.06;5030938;28;20210;-69
2022/06/03 02:56:00;;;;;;;10.43;7.70;;;;;;;10.82;84.36;101931.88;5029003;28;20113;-69
2022/06/03 02:59:06;;;;;;;13.55;8.20;;;;;;;10.78;84.88;101927.59;4986698;28;20060;-69
2022/06/03 03:01:57;;;;;;;13.00;8.52;;;;;;;10.63;85.58;101923.84;5016872;28;21052;-71
2022/06/03 03:04:47;;;;;;;12.32;8.75;;;;;;;10.56;85.76;101917.06;5029089;28;20159;-69
2022/06/03 03:07:24;;;;;;;14.43;9.35;;;;;;;10.66;85.47;101920.19;5017820;28;20064;-71
2022/06/03 03:10:10;;;;;;;13.80;8.82;;;;;;;10.71;85.53;101907.50;5028672;28;20075;-70
2022/06/03 03:12:47;;;;;;;13.38;8.70;;;;;;;10.54;86.36;101900.25;5029082;28;20080;-71
2022/06/03 03:15:22;;;;;;;14.40;8.70;;;;;;;10.59;86.17;101904.47;5028777;28;20052;-71
2022/06/03 03:18:12;;;;;;;13.70;8.57;;;;;;;10.53;86.24;101909.19;5028354;28;20055;-71
2022/06/03 03:21:05;;;;;;;13.63;8.90;;;;;;;10.62;85.72;101898.97;5028070;28;20871;-70
2022/06/03 03:23:42;;;;;;;;;;;;;;;10.56;86.75;101906.41;5030230;28;20107;-70
2022/06/03 03:26:32;;;;;;;13.00;8.15;;;;;;;10.60;86.02;101908.88;5013003;28;19951;-70
2022/06/03 03:29:07;;;;;;;11.00;8.38;;;;;;;10.59;86.24;101923.16;5029412;28;20045;-71
2022/06/03 03:31:59;;;;;;;13.07;8.88;;;;;;;10.65;85.58;101916.66;5029321;28;20162;-70
2022/06/03 03:34:49;;;;;;;12.52;8.27;;;;;;;10.67;84.92;101930.78;5029958;28;20071;-68
2022/06/03 03:37:23;;;;;;;11.45;7.68;;;;;;;10.69;84.96;101933.34;5018189;28;20155;-69
2022/06/03 03:40:27;;;;;;;10.35;7.75;;;;;;;10.63;85.23;101935.38;5032034;28;20222;-70
2022/06/03 03:43:05;;;;;;;15.48;9.00;;;;;;;10.71;85.05;101936.84;5018621;28;20055;-70
2022/06/03 03:45:46;;;;;;;10.45;8.02;;;;;;;10.94;84.38;101939.28;5031672;28;20041;-70
2022/06/03 03:48:38;;;;;;;16.50;8.40;;;;;;;11.13;82.53;101923.25;5030486;28;20971;-70
2022/06/03 03:51:10;;;;;;;13.85;8.43;;;;;;;10.93;83.49;101928.69;5034316;28;20474;-71
2022/06/03 03:53:53;;;;;;;9.68;7.95;;;;;;;10.73;84.75;101922.47;5034653;28;20076;-71
2022/06/03 03:56:40;;;;;;;12.02;8.98;;;;;;;10.70;84.68;101924.44;5034169;28;20871;-71
2022/06/03 03:59:33;;;;;;;12.82;8.48;;;;;;;10.76;85.03;101924.16;5034100;28;20052;-70
2022/06/03 04:02:20;;;;;;;16.10;8.95;;;;;;;10.76;84.60;101913.47;5035319;28;20138;-70
2022/06/03 04:05:27;;;;;;;11.25;8.38;;;;;;;10.62;85.41;101916.78;5034213;28;20705;-71
2022/06/03 04:08:30;;;;;;;10.65;8.82;;;;;;;10.61;85.11;101921.25;5034889;28;20095;-70
2022/06/03 04:11:24;;;;;;;12.93;8.35;;;;;;;10.63;85.61;101907.84;5034980;28;20045;-71
2022/06/03 04:14:12;;;;;;;11.23;8.50;;;;;;;10.68;84.90;101907.63;5034494;28;20423;-70
2022/06/03 04:17:02;;;;;;;16.20;9.55;;;;;;;10.73;84.71;101897.59;5034252;28;20723;-70
2022/06/03 04:19:54;;;;;;;12.05;9.40;;;;;;;10.78;84.64;101896.44;5033541;28;20119;-69
2022/06/03 04:22:33;;;;;;;11.85;9.18;;;;;;;10.77;84.86;101899.19;5015369;28;20049;-69
2022/06/03 04:25:31;;;;;;;12.80;8.93;;;;;;;10.87;84.65;101895.16;5031901;28;20037;-70
2022/06/03 04:28:05;;;;;;;13.05;9.35;;;;;;;10.84;84.54;101895.28;5034434;28;20037;-69
2022/06/03 04:30:49;;;;;;;19.17;9.30;;;;;;;10.91;84.62;101899.41;5019390;28;21064;-69
2022/06/03 04:33:45;;;;;;;11.60;8.50;;;;;;;10.88;84.67;101899.53;5032675;28;20712;-69
2022/06/03 04:36:42;;;;;;;10.52;8.57;;;;;;;11.02;84.38;101897.09;5033580;28;20114;-69
2022/06/03 04:39:34;;;;;;;13.05;9.88;;;;;;;11.03;84.52;101896.13;5033971;28;20048;-69
2022/06/03 04:42:28;;;;;;;12.07;9.30;;;;;;;10.92;85.17;101887.78;5031999;28;20055;-69
2022/06/03 04:45:20;;;;;;;14.45;9.73;;;;;;;11.11;84.09;101887.78;5025555;28;20048;-69
2022/06/03 04:48:14;;;;;;;14.93;9.07;;;;;;;11.20;83.23;101894.47;5013686;28;20087;-70
2022/06/03 04:51:17;;;;;;;14.48;9.05;;;;;;;11.66;82.80;101893.03;5021369;28;20041;-71
2022/06/03 04:54:12;;;;;;;11.48;8.50;;;;;;;13.43;75.92;101888.69;5027003;28;20140;-70
2022/06/03 04:56:55;;;;;;;9.00;8.10;;;;;;;14.79;69.87;101878.63;5028895;28;20037;-69
2022/06/03 05:00:01;;;;;;;10.80;7.95;;;;;;;15.44;67.34;101882.31;5024643;28;20091;-69
2022/06/03 05:03:01;;;;;;;10.02;6.80;;;;;;;16.96;61.67;101869.84;5026554;28;20245;-69
2022/06/03 05:06:01;;;;;;;8.70;7.15;;;;;;;16.86;61.14;101874.19;5026598;28;20036;-69
2022/06/03 05:08:47;;;;;;;7.97;6.68;;;;;;;17.84;58.73;101872.22;5020736;28;20037;-69
2022/06/03 05:11:40;;;;;;;10.88;6.55;;;;;;;18.30;56.81;101868.63;5027298;28;20041;-68
2022/06/03 05:14:39;;;;;;;8.80;6.75;;;;;;;18.34;55.84;101867.41;5031401;28;20183;-70
2022/06/03 05:17:17;;;;;;;10.45;6.88;;;;;;;18.42;55.46;101869.47;5015292;28;20088;-69
2022/06/03 05:20:05;;;;;;;10.18;6.60;;;;;;;18.79;54.71;101864.69;5022491;28;20448;-69
2022/06/03 05:23:01;;;;;;;9.10;6.68;;;;;;;18.37;55.42;101857.22;5004857;28;20411;-69
2022/06/03 05:25:58;;;;;;;6.90;6.20;;;;;;;17.88;56.03;101864.78;5010046;28;20099;-70
2022/06/03 05:28:39;;;;;;;6.55;5.90;;;;;;;18.14;56.21;101860.88;4997560;28;20244;-70
2022/06/03 05:31:49;;;;;;;9.23;6.13;;;;;;;18.02;56.94;101861.81;5009371;28;20204;-69
2022/06/03 05:34:33;;;;;;;10.52;6.70;;;;;;;18.54;55.78;101869.34;5004224;28;20053;-69
2022/06/03 05:37:17;;;;;;;7.03;5.75;;;;;;;17.74;57.88;101857.75;5009311;28;20044;-70
2022/06/03 05:39:53;;;;;;;7.60;6.13;;;;;;;18.28;56.92;101863.34;5009393;28;20162;-69
2022/06/03 05:42:37;;;;;;;8.98;6.50;;;;;;;18.20;55.21;101865.78;5009217;28;20572;-69
2022/06/03 05:45:17;;;;;;;7.60;6.78;;;;;;;18.37;55.04;101861.72;4991679;28;20045;-69
2022/06/03 05:48:03;;;;;;;8.20;7.03;;;;;;;18.41;56.57;101865.91;4992446;28;20727;-68
2022/06/03 05:50:47;;;;;;;8.65;6.38;;;;;;;18.67;54.80;101861.09;5010053;28;20796;-69
2022/06/03 05:53:18;;;;;;;7.78;6.15;;;;;;;18.78;54.66;101858.44;5008239;28;20046;-68
2022/06/03 05:56:19;;;;;;;6.90;6.13;;;;;;;18.48;54.89;101856.34;4991294;28;20051;-69
2022/06/03 05:59:10;;;;;;;7.28;6.53;;;;;;;18.77;54.01;101861.25;5009619;28;20061;-68
2022/06/03 06:02:04;;;;;;;7.23;6.43;;;;;;;18.95;54.62;101853.47;5023731;28;20068;-69
2022/06/03 06:05:07;;;;;;;9.00;6.30;;;;;;;18.64;53.45;101862.22;5026788;28;20144;-70
2022/06/03 06:07:59;;;;;;;6.80;6.05;;;;;;;18.94;53.46;101857.16;5020628;28;20050;-70
2022/06/03 06:10:51;;;;;;;;;;;;;;;18.51;54.44;101852.53;5020223;28;20485;-68
2022/06/03 06:13:49;;;;;;;7.63;6.22;;;;;;;18.00;55.91;101853.00;5009030;28;19921;-70
2022/06/03 06:16:21;;;;;;;8.25;6.45;;;;;;;18.15;55.44;101850.94;5003778;28;20046;-71
2022/06/03 06:18:56;;;;;;;9.18;6.63;;;;;;;17.97;56.73;101847.81;5007220;28;20045;-68
2022/06/03 06:21:38;;;;;;;8.02;6.60;;;;;;;18.15;55.96;101843.69;5005923;28;20134;-69
2022/06/03 06:24:43;;;;;;;6.55;5.93;;;;;;;18.19;55.13;101852.41;5005981;28;20041;-69
2022/06/03 06:27:41;;;;;;;7.65;6.35;;;;;;;18.16;55.92;101853.50;4998281;28;20159;-69
2022/06/03 06:30:17;;;;;;;7.65;6.82;;;;;;;17.95;56.01;101855.19;5018713;28;20156;-68
2022/06/03 06:32:58;;;;;;;7.07;5.95;;;;;;;18.58;54.44;101851.06;5004834;28;20107;-69
2022/06/03 06:35:54;;;;;;;10.32;6.80;;;;;;;18.47;54.59;101859.16;5003482;28;20053;-70
2022/06/03 06:38:38;;;;;;;9.10;6.22;;;;;;;18.32;54.65;101853.13;5053969;22;20058;-67
2022/06/03 06:41:29;;;;;;;9.43;7.10;;;;;;;18.43;54.97;101855.00;4991647;28;20041;-66
2022/06/03 06:44:08;;;;;;;10.13;7.30;;;;;;;18.61;53.87;101848.94;5010903;28;20945;-66
2022/06/03 06:46:38;;;;;;;10.40;7.07;;;;;;;18.09;55.21;101847.75;4992815;28;20041;-66
2022/06/03 06:49:26;;;;;;;8.85;6.68;;;;;;;18.57;54.53;101850.19;5006405;28;20060;-66
2022/06/03 06:52:03;;;;;;;7.88;6.95;;;;;;;18.89;54.47;101853.00;4985694;28;20152;-66
2022/06/03 06:54:37;;;;;;;9.25;6.95;;;;;;;19.09;53.27;101862.16;5011563;28;20086;-66
2022/06/03 06:57:09;;;;;;;8.55;6.65;;;;;;;19.19;54.23;101856.84;5001640;28;20036;-65
2022/06/03 06:59:40;;;;;;;;;;;;;;;19.70;52.61;101855.28;4992501;28;20519;-66
2022/06/03 07:02:20;;;;;;;18.25;7.95;;;;;;;19.43;52.54;101862.03;4987159;28;19922;-66
2022/06/03 07:04:55;;;;;;;7.38;6.22;;;;;;;19.68;52.36;101855.44;5005672;28;20088;-66
2022/06/03 07:07:37;;;;;;;7.53;6.03;;;;;;;20.18;52.12;101853.75;5023693;28;20038;-65
2022/06/03 07:10:40;;;;;;;8.27;6.03;;;;;;;19.97;51.39;101852.91;4995465;28;20050;-66
2022/06/03 07:13:17;;;;;;;6.70;6.00;;;;;;;19.99;50.06;101848.22;4996910;28;20061;-66
2022/06/03 07:15:52;;;;;;;12.02;6.45;;;;;;;19.65;51.73;101856.53;4990661;28;20037;-65
2022/06/03 07:21:15;;;;;;;8.43;6.53;;;;;;;19.91;50.67;101853.44;4988653;28;20095;-65
2022/06/03 07:24:01;;;;;;;6.88;5.85;;;;;;;20.15;50.48;101854.00;4989460;28;20092;-65
2022/06/03 07:26:34;;;;;;;10.25;7.05;;;;;;;19.73;51.16;101849.59;4993004;28;20661;-65
2022/06/03 07:29:29;;;;;;;9.30;6.50;;;;;;;20.29;51.06;101854.66;5022279;28;20846;-65
2022/06/03 07:32:03;;;;;;;7.53;6.43;;;;;;;20.51;51.37;101853.63;4982099;28;20724;-67
2022/06/03 07:34:32;;;;;;;8.80;6.50;;;;;;;19.54;50.94;101855.72;4992078;28;20041;-67
2022/06/03 07:37:11;;;;;;;7.65;6.00;;;;;;;20.21;50.94;101851.75;4990623;28;20088;-66
2022/06/03 07:40:02;;;;;;;9.75;6.68;;;;;;;19.66;53.09;101854.69;4991562;28;20246;-66
2022/06/03 07:42:38;;;;;;;9.00;7.05;;;;;;;20.05;50.60;101847.69;5005317;28;20061;-66
2022/06/03 07:45:21;;;;;;;7.57;6.75;;;;;;;20.71;50.07;101844.56;4996079;28;20093;-66
2022/06/03 07:47:47;;;;;;;8.15;6.63;;;;;;;20.74;50.20;101843.44;5005420;28;20089;-66
2022/06/03 07:50:17;;;;;;;8.48;7.00;;;;;;;20.35;49.58;101844.13;4988689;28;20045;-66
2022/06/03 07:52:50;;;;;;;8.02;6.85;;;;;;;21.06;50.13;101829.63;4990223;28;20483;-65
2022/06/03 07:55:21;;;;;;;10.88;6.60;;;;;;;20.57;48.95;101840.38;4987537;28;20025;-65
2022/06/03 07:57:58;;;;;;;9.65;6.78;;;;;;;20.73;48.78;101829.00;4989361;28;20117;-65
2022/06/03 08:00:25;;;;;;;8.88;6.63;;;;;;;21.40;48.85;101822.81;5000568;28;20044;-66
2022/06/03 08:03:12;;;;;;;7.55;6.50;;;;;;;21.15;50.40;101818.78;4991493;28;20045;-67
2022/06/03 08:05:38;;;;;;;7.65;6.50;;;;;;;21.42;47.04;101811.81;5022471;28;20076;-65
2022/06/03 08:11:06;;;;;;;7.20;5.78;;;;;;;20.80;49.53;101811.19;4990195;28;20068;-65
2022/06/03 08:13:41;;;;;;;8.07;5.35;;;;;;;20.91;47.81;101810.22;4993128;28;20456;-66
2022/06/03 08:16:27;;;;;;;9.93;6.68;;;;;;;20.88;49.91;101800.50;4990510;28;20041;-65
2022/06/03 08:19:00;;;;;;;8.57;6.07;;;;;;;21.16;49.16;101789.81;4982387;28;20852;-64
2022/06/03 08:21:55;;;;;;;7.65;6.15;;;;;;;20.85;49.47;101792.66;4987160;28;20034;-65
2022/06/03 08:24:25;;;;;;;8.52;5.97;;;;;;;21.47;49.88;101795.94;4979710;28;20054;-64
2022/06/03 08:26:55;;;;;;;10.43;6.00;;;;;;;21.75;49.20;101796.91;4996514;28;20050;-64
2022/06/03 08:29:26;;;;;;;7.60;5.68;;;;;;;21.06;49.09;101791.66;4993154;28;20062;-65
2022/06/03 08:31:54;;;;;;;9.82;6.13;;;;;;;21.75;47.30;101799.63;4995251;28;20398;-65
2022/06/03 08:34:24;;;;;;;7.55;5.75;;;;;;;22.29;46.61;101800.78;4992886;28;20038;-64
2022/06/03 08:36:52;;;;;;;9.27;5.32;;;;;;;21.76;46.68;101808.63;5002644;28;20100;-65
2022/06/03 08:39:24;;;;;;;6.13;5.32;;;;;;;21.60;46.81;101801.94;5016049;28;20056;-65
2022/06/03 08:42:28;;;;;;;6.57;5.63;;;;;;;21.91;48.87;101797.16;5007139;28;20065;-65
2022/06/03 08:45:13;;;;;;;6.07;5.47;;;;;;;21.37;47.52;101798.69;5023760;28;20489;-66
2022/06/03 08:47:48;;;;;;;7.25;5.80;;;;;;;22.07;48.19;101790.22;5015225;28;20033;-65
2022/06/03 08:50:39;;;;;;;7.40;5.82;;;;;;;21.44;49.90;101783.56;5013895;28;20225;-65
2022/06/03 08:53:08;;;;;;;6.68;5.22;;;;;;;22.37;48.25;101775.53;5013408;28;20056;-66
2022/06/03 08:55:36;;;;;;;6.35;5.72;;;;;;;22.31;47.30;101777.00;5013769;28;20037;-65
2022/06/03 08:58:28;;;;;;;6.07;5.32;;;;;;;21.86;48.10;101775.00;5011699;28;20136;-64
2022/06/03 09:01:02;;;;;;;24.50;7.28;;;;;;;21.85;46.23;101770.59;5013422;28;20134;-65
2022/06/03 09:03:31;;;;;;;7.75;5.47;;;;;;;22.28;48.20;101773.72;5013107;28;20041;-66
2022/06/03 09:06:11;;;;;;;7.78;5.55;;;;;;;22.58;45.76;101772.53;5012724;28;20037;-65
2022/06/03 09:08:46;;;;;;;7.38;4.78;;;;;;;22.53;44.50;101764.00;5012488;28;20116;-66
2022/06/03 09:11:25;;;;;;;8.55;5.55;;;;;;;21.88;44.08;101783.84;5012961;28;20044;-65
2022/06/03 09:13:57;;;;;;;5.47;4.05;;;;;;;22.42;45.87;101784.94;5013005;28;20391;-65
2022/06/03 09:16:25;;;;;;;5.30;4.53;;;;;;;22.47;46.19;101781.78;5011774;28;20033;-65
2022/06/03 09:19:07;;;;;;;6.40;4.97;;;;;;;22.42;46.39;101779.50;5007035;28;20038;-66
2022/06/03 09:21:35;;;;;;;7.25;4.75;;;;;;;22.41;45.00;101771.50;5006150;28;20099;-64
2022/06/03 09:24:21;;;;;;;5.47;4.97;;;;;;;21.90;44.72;101778.28;5012510;28;20644;-64
2022/06/03 09:26:53;;;;;;;5.72;4.70;;;;;;;21.62;45.65;101780.94;5012367;28;20029;-65
2022/06/03 09:29:20;;;;;;;5.60;3.95;;;;;;;22.35;44.42;101774.84;5011646;28;20037;-65
2022/06/03 09:31:53;;;;;;;7.28;4.53;;;;;;;22.37;45.61;101773.66;5011541;28;20242;-65
2022/06/03 09:34:22;;;;;;;5.32;4.28;;;;;;;;;;5008944;28;20045;-65
2022/06/03 09:36:48;;;;;;;5.53;4.60;;;;;;;22.70;45.89;101765.91;5010055;28;20029;-64
2022/06/03 09:39:17;;;;;;;4.78;3.90;;;;;;;22.82;44.88;101764.66;5043177;28;20128;-65
2022/06/03 09:41:47;;;;;;;4.30;3.90;;;;;;;22.37;42.02;101760.09;5012533;28;20765;-65
2022/06/03 09:44:15;;;;;;;5.43;3.67;;;;;;;22.68;42.55;101771.47;4992908;28;20041;-64
2022/06/03 09:46:42;;;;;;;5.88;4.10;;;;;;;22.92;42.44;101757.31;5000939;28;20705;-64
2022/06/03 09:49:09;;;;;;;5.15;4.10;;;;;;;22.91;44.29;101763.75;5011378;28;20451;-64
2022/06/03 09:51:55;;;;;;;15.48;4.28;;;;;;;22.70;42.53;101764.03;5011623;28;20045;-64
2022/06/03 09:54:24;;;;;;;3.72;3.20;;;;;;;22.84;39.66;101756.31;5006823;28;20476;-63
2022/06/03 09:56:53;;;;;;;4.90;3.45;;;;;;;22.64;41.27;101763.78;5001381;28;20305;-64
2022/06/03 09:59:21;;;;;;;4.07;2.63;;;;;;;23.31;40.87;101754.25;5006644;28;20042;-64
2022/06/03 10:01:49;;;;;;;4.88;2.85;;;;;;;23.29;43.73;101760.84;5012232;28;20037;-63
2022/06/03 10:04:15;;;;;;;3.03;2.72;;;;;;;23.42;39.84;101756.72;5011947;28;20064;-64
2022/06/03 10:06:46;;;;;;;4.40;3.60;;;;;;;23.10;39.19;101770.91;5006001;28;20037;-63
2022/06/03 10:17:41;;;;;;;4.18;3.00;;;;;;;23.24;39.57;101745.88;5012682;28;20115;-65
2022/06/03 10:20:08;;;;;;;3.40;3.10;;;;;;;23.39;39.11;101748.00;5001794;28;20033;-65
2022/06/03 10:22:34;;;;;;;5.93;3.00;;;;;;;23.08;39.47;101751.16;5007954;28;20037;-65
2022/06/03 10:25:00;;;;;;;3.08;2.72;;;;;;;23.02;39.72;101735.47;5011713;28;20482;-64
2022/06/03 10:27:26;;;;;;;2.95;2.33;;;;;;;23.45;38.23;101731.91;4999688;28;20040;-64
2022/06/03 10:29:52;;;;;;;2.38;1.85;;;;;;;23.48;38.85;101733.44;5005727;28;20033;-64
2022/06/03 10:32:21;;;;;;;3.65;2.67;;;;;;;23.62;37.15;101734.72;5002227;28;20042;-64
2022/06/03 10:34:47;;;;;;;4.35;2.95;;;;;;;23.70;37.47;101732.09;4994532;28;20155;-64
2022/06/03 10:37:21;;;;;;;4.63;2.63;;;;;;;23.83;38.21;101718.88;4990349;28;20042;-65
2022/06/03 10:39:47;;;;;;;4.22;3.00;;;;;;;23.41;39.75;101725.06;4991731;28;20390;-64
2022/06/03 10:42:16;;;;;;;3.72;3.00;;;;;;;22.60;38.69;101727.91;5006594;28;20061;-64
2022/06/03 10:44:48;;;;;;;8.32;3.28;;;;;;;22.54;37.69;101730.34;5010735;28;20096;-65
2022/06/03 10:47:20;;;;;;;4.50;2.53;;;;;;;22.85;39.29;101717.28;5007615;28;20602;-65
2022/06/03 10:49:57;;;;;;;5.15;3.05;;;;;;;23.17;41.31;101711.28;5002154;28;20849;-64
2022/06/03 11:01:32;;;;;;;3.28;2.50;;;;;;;23.21;39.03;101705.34;4972974;28;20189;-65
2022/06/03 11:03:59;;;;;;;2.90;2.47;;;;;;;23.39;37.61;101688.97;4968851;28;20634;-64
2022/06/03 11:06:32;;;;;;;2.88;2.17;;;;;;;23.72;38.85;101689.19;4965373;28;20088;-65
2022/06/03 11:09:00;;;;;;;4.38;2.70;;;;;;;23.48;38.64;101688.00;4964312;28;20573;-66
2022/06/03 11:11:47;;;;;;;5.35;2.70;;;;;;;23.63;38.37;101679.22;4966256;28;20668;-63
2022/06/03 11:14:32;;;;;;;2.72;2.35;;;;;;;23.69;37.57;101689.50;4967062;28;20054;-65
2022/06/03 11:17:18;;;;;;;3.13;2.15;;;;;;;24.07;40.40;101676.41;4968056;28;20054;-66
2022/06/03 11:19:47;;;;;;;3.38;2.28;;;;;;;23.67;37.69;101675.22;4968998;28;20069;-64
2022/06/03 11:22:16;;;;;;;2.58;1.98;;;;;;;23.81;39.16;101677.31;4953685;28;20289;-64
2022/06/03 11:24:54;;;;;;;2.88;2.60;;;;;;;23.42;38.24;101679.63;4970583;28;20959;-65
2022/06/03 11:27:26;;;;;;;3.20;2.22;;;;;;;23.83;38.63;101666.25;4974191;28;20050;-64
2022/06/03 11:29:55;;;;;;;;;;;;;;;23.71;38.40;101680.19;4969320;28;20290;-64
2022/06/03 11:32:21;;;;;;;2.60;2.40;;;;;;;23.76;36.04;101671.50;4976456;28;20412;-64
2022/06/03 11:34:54;;;;;;;7.60;2.50;;;;;;;23.78;37.71;101685.81;4997357;28;20488;-64
2022/06/03 11:37:28;;;;;;;3.22;2.13;;;;;;;24.40;37.65;101671.91;4992060;28;20880;-65
2022/06/03 11:40:05;;;;;;;5.47;2.22;;;;;;;24.04;38.04;101685.75;4992061;28;20121;-64
2022/06/03 11:42:48;;;;;;;6.70;2.75;;;;;;;23.93;37.74;101670.56;5005489;28;20477;-65
2022/06/03 11:45:21;;;;;;;2.42;2.22;;;;;;;23.96;38.88;101680.28;5007720;28;20679;-66
2022/06/03 11:47:56;;;;;;;2.78;2.50;;;;;;;24.09;36.28;101661.56;5006900;28;20034;-66
2022/06/03 11:50:25;;;;;;;2.38;2.17;;;;;;;24.47;37.06;101660.19;5008130;28;20037;-66
2022/06/03 11:52:54;;;;;;;4.38;2.65;;;;;;;23.83;38.73;101658.09;4991180;28;20070;-65
2022/06/03 11:55:21;;;;;;;6.00;2.72;;;;;;;24.00;36.89;101652.53;4998599;28;20037;-65
2022/06/03 11:58:09;;;;;;;4.35;2.22;;;;;;;24.65;37.16;101661.88;5009007;28;20481;-66
2022/06/03 12:00:43;;;;;;;5.97;2.22;;;;;;;24.32;34.22;101667.28;4960094;28;20041;-65
2022/06/03 12:03:31;;;;;;;2.58;1.60;;;;;;;24.53;35.89;101666.81;5007641;28;20065;-65
2022/06/03 12:06:06;;;;;;;2.20;2.10;;;;;;;24.35;34.48;101666.94;5007191;28;20547;-65
2022/06/03 12:08:52;;;;;;;2.63;2.20;;;;;;;24.20;35.76;101661.28;4979753;28;20042;-64
2022/06/03 12:14:32;;;;;;;2.40;2.20;;;;;;;24.57;39.40;101659.19;5006027;28;20296;-65
2022/06/03 12:17:22;;;;;;;2.38;2.17;;;;;;;24.43;36.32;101668.84;4998236;28;20051;-65
2022/06/03 12:19:53;;;;;;;5.40;2.25;;;;;;;24.43;35.43;101666.13;4999641;28;20041;-65
2022/06/03 12:22:33;;;;;;;3.67;2.88;;;;;;;24.73;36.88;101664.63;5007473;28;20549;-65
2022/06/03 12:25:01;;;;;;;3.38;2.25;;;;;;;24.54;36.57;101661.19;5012952;28;20025;-65
2022/06/03 12:27:40;;;;;;;6.80;2.92;;;;;;;24.43;36.29;101656.06;5004997;28;20041;-65
2022/06/03 12:30:14;;;;;;;2.53;1.92;;;;;;;24.47;34.33;101652.00;5042493;28;20041;-64
2022/06/03 12:32:54;;;;;;;3.20;2.20;;;;;;;24.17;37.81;101658.88;5013887;28;20365;-66
2022/06/03 12:35:52;;;;;;;4.70;2.17;;;;;;;24.47;36.53;101651.16;5006045;28;20057;-65
2022/06/03 12:38:23;;;;;;;3.92;2.40;;;;;;;24.76;36.07;101662.44;5006677;28;20061;-65
2022/06/03 12:40:50;;;;;;;3.47;2.13;;;;;;;24.30;34.22;101661.16;5012758;28;20034;-66
2022/06/03 12:43:29;;;;;;;2.13;1.92;;;;;;;24.04;36.88;101661.22;5011732;28;20033;-65
2022/06/03 12:46:07;;;;;;;2.65;2.45;;;;;;;23.53;36.84;101665.75;5006686;28;20048;-65
2022/06/03 12:48:46;;;;;;;5.50;2.20;;;;;;;23.84;37.59;101662.50;4993876;28;20379;-66
2022/06/03 12:51:20;;;;;;;2.50;1.92;;;;;;;23.81;36.46;101658.25;5011194;28;20044;-65
2022/06/03 12:53:48;;;;;;;5.18;2.50;;;;;;;23.53;35.82;101658.41;5015178;28;20041;-66
2022/06/03 12:56:35;;;;;;;2.60;2.33;;;;;;;23.80;35.59;101663.84;5013873;28;20051;-65
2022/06/03 12:59:29;;;;;;;2.97;2.15;;;;;;;24.11;36.25;101653.25;4989049;28;20049;-64